»·PEaware :: N1927H L35-KLAS

N1927H :: L35-KLAS

FLIGHT INFORMATION

Flight Status: Arrived
Operator: Privately registered:
United States
More flights under this callsign
Pilot: Wayne R. (17783)
Aircraft: PIPER PA-28R-201 ARROW
(P28R)
More flights by this aircraft type
Origin: L35 Big Bear City
United States
Destination: KLAS McCarran Intl
United States
More flights between these airports :: More routes between these airports
Route: OKACO1 OKACO BULGY V8 HEC CRESO4
File this flight plan on PilotEdge
Remarks:
Altitude:
(Current/Filed)
11,000ft
Speed:
(Current/Filed)
130kts
Departed: 27-Feb-20 05:38 PM
Arrived: 27-Feb-20 06:54 PM
Distance/Time
Traveled:
137nm/1:16
Distance/Time
To Go:
Arrived

Flight Plot

Page will automatically refresh every two minutes.

Flight plan parsing failed; only flown route is shown


Map Options




Map Legend


Flown Route
Filed Route
Departure Airport
Arrival Airport
Navaid (VOR, NDB)
Fix

Horizontal Profiles

Position Reports

Time Latitude Longitude Heading Altitude Ground
Speed
27-Feb-20 17:23 34.264320 -116.855338 179 6752ft 0kts
27-Feb-20 17:24 34.264320 -116.855338 179 6752ft 0kts
27-Feb-20 17:25 34.264320 -116.855338 179 6752ft 0kts
27-Feb-20 17:26 34.264320 -116.855338 179 6752ft 0kts
27-Feb-20 17:27 34.264320 -116.855338 179 6752ft 0kts
27-Feb-20 17:28 34.264320 -116.855338 179 6752ft 0kts
27-Feb-20 17:29 34.264320 -116.855338 179 6752ft 0kts
27-Feb-20 17:30 34.264320 -116.855338 179 6752ft 0kts
27-Feb-20 17:31 34.264302 -116.855345 219 6752ft 0kts
27-Feb-20 17:33 34.264193 -116.859054 211 6752ft 2kts
27-Feb-20 17:34 34.263197 -116.864633 267 6752ft 22kts
27-Feb-20 17:35 34.263286 -116.865602 338 6752ft 0kts
27-Feb-20 17:36 34.263359 -116.865634 342 6752ft 0kts
27-Feb-20 17:37 34.263749 -116.864660 90 6752ft 20kts
27-Feb-20 17:38 34.261818 -116.841967 90 6917ft 90kts
27-Feb-20 17:39 34.264074 -116.811127 87 7343ft 92kts
27-Feb-20 17:40 34.263439 -116.783010 80 7932ft 77kts
27-Feb-20 17:41 34.263610 -116.752131 84 8292ft 101kts
27-Feb-20 17:42 34.263672 -116.717055 84 8748ft 107kts
27-Feb-20 17:43 34.263237 -116.680922 87 9224ft 106kts
27-Feb-20 17:44 34.262688 -116.647012 84 9818ft 96kts
27-Feb-20 17:45 34.261676 -116.618192 86 10406ft 80kts
27-Feb-20 17:46 34.260663 -116.587507 84 10670ft 103kts
27-Feb-20 17:47 34.276695 -116.569463 354 11055ft 109kts
27-Feb-20 17:48 34.310193 -116.575863 352 11052ft 127kts
27-Feb-20 17:49 34.345536 -116.582729 352 11058ft 130kts
27-Feb-20 17:50 34.381344 -116.589659 352 11049ft 131kts
27-Feb-20 17:51 34.417193 -116.596571 352 11055ft 130kts
27-Feb-20 17:52 34.453140 -116.603477 352 11053ft 131kts
27-Feb-20 17:52 34.483064 -116.609126 355 11051ft 130kts
27-Feb-20 17:54 34.525281 -116.612552 357 11051ft 130kts
27-Feb-20 17:55 34.561453 -116.615337 357 11051ft 130kts
27-Feb-20 17:55 34.591575 -116.615274 359 11050ft 130kts
27-Feb-20 17:57 34.633533 -116.618565 356 11048ft 129kts
27-Feb-20 17:57 34.663349 -116.621200 1 11044ft 129kts
27-Feb-20 17:58 34.689746 -116.593834 41 11047ft 128kts
27-Feb-20 18:00 34.719267 -116.558267 43 11046ft 128kts
27-Feb-20 18:00 34.740053 -116.532580 43 11045ft 128kts
27-Feb-20 18:01 34.765128 -116.501701 42 11045ft 128kts
27-Feb-20 18:02 34.790178 -116.470816 42 11045ft 128kts
27-Feb-20 18:03 34.814646 -116.439595 44 11054ft 128kts
27-Feb-20 18:04 34.838810 -116.407806 44 11054ft 127kts
27-Feb-20 18:05 34.863040 -116.376159 44 11058ft 127kts
27-Feb-20 18:06 34.887225 -116.344569 44 11064ft 127kts
27-Feb-20 18:07 34.911384 -116.312960 44 11068ft 127kts
27-Feb-20 18:08 34.935400 -116.281483 44 11069ft 127kts
27-Feb-20 18:09 34.959523 -116.249874 44 11069ft 127kts
27-Feb-20 18:10 34.983477 -116.218452 43 11067ft 126kts
27-Feb-20 18:11 35.007467 -116.186970 43 11063ft 126kts
27-Feb-20 18:12 35.031379 -116.155596 43 11057ft 126kts
27-Feb-20 18:13 35.055341 -116.124081 43 11044ft 126kts
27-Feb-20 18:14 35.079329 -116.092500 43 11044ft 127kts
27-Feb-20 18:15 35.103385 -116.060773 43 11047ft 127kts
27-Feb-20 18:16 35.127498 -116.028907 43 11048ft 128kts
27-Feb-20 18:17 35.151770 -115.996872 43 11048ft 128kts
27-Feb-20 18:18 35.176020 -115.964821 43 11048ft 128kts
27-Feb-20 18:19 35.200236 -115.932773 43 11047ft 128kts
27-Feb-20 18:20 35.224377 -115.900807 43 11050ft 128kts
27-Feb-20 18:21 35.248589 -115.868727 42 11056ft 128kts
27-Feb-20 18:22 35.272785 -115.836621 42 11062ft 128kts
27-Feb-20 18:23 35.297080 -115.804350 42 11068ft 129kts
27-Feb-20 18:24 35.321376 -115.772067 42 11074ft 129kts
27-Feb-20 18:25 35.345742 -115.739769 42 11080ft 129kts
27-Feb-20 18:26 35.370169 -115.707266 42 11087ft 130kts
27-Feb-20 18:27 35.394648 -115.674597 42 11092ft 130kts
27-Feb-20 18:28 35.419190 -115.641820 42 11092ft 130kts
27-Feb-20 18:29 35.443725 -115.609016 42 11092ft 130kts
27-Feb-20 18:30 35.468215 -115.576253 42 11092ft 130kts
27-Feb-20 18:31 35.492759 -115.543386 42 11092ft 130kts
27-Feb-20 18:32 35.517302 -115.510479 42 11092ft 130kts
27-Feb-20 18:33 35.541773 -115.477660 42 11092ft 130kts
27-Feb-20 18:34 35.566230 -115.444828 42 11092ft 130kts
27-Feb-20 18:35 35.590745 -115.411882 42 11092ft 130kts
27-Feb-20 18:36 35.615232 -115.379091 42 11092ft 130kts
27-Feb-20 18:37 35.639778 -115.346146 42 11092ft 130kts
27-Feb-20 18:38 35.664276 -115.313157 42 11091ft 130kts
27-Feb-20 18:39 35.695103 -115.293257 17 11091ft 127kts
27-Feb-20 18:40 35.728211 -115.278098 17 11091ft 127kts
27-Feb-20 18:41 35.761241 -115.262975 17 11091ft 126kts
27-Feb-20 18:42 35.796044 -115.247272 17 10726ft 139kts
27-Feb-20 18:43 35.832185 -115.231314 17 10269ft 135kts
27-Feb-20 18:44 35.867542 -115.215891 17 9811ft 134kts
27-Feb-20 18:45 35.902815 -115.200619 17 9352ft 134kts
27-Feb-20 18:46 35.937898 -115.185559 17 8895ft 133kts
27-Feb-20 18:47 35.974224 -115.170198 17 8165ft 141kts
27-Feb-20 18:48 36.011899 -115.154457 17 7403ft 143kts
27-Feb-20 18:49 36.048511 -115.139089 19 6713ft 133kts
27-Feb-20 18:50 36.081473 -115.122049 22 5951ft 122kts
27-Feb-20 18:51 36.107160 -115.114132 320 5074ft 92kts
27-Feb-20 18:52 36.112973 -115.144727 250 3420ft 102kts
27-Feb-20 18:53 36.092895 -115.160388 200 2107ft 27kts
27-Feb-20 18:54 36.089445 -115.163639 300 2127ft 0kts
27-Feb-20 18:55 36.090729 -115.164873 283 2128ft 15kts
27-Feb-20 18:56 36.091033 -115.165626 66 2130ft 0kts
27-Feb-20 18:57 36.091033 -115.165626 66 2130ft 0kts
27-Feb-20 18:58 36.091033 -115.165626 66 2130ft 0kts
27-Feb-20 18:59 36.091033 -115.165626 66 2130ft 0kts
27-Feb-20 19:00 36.091033 -115.165626 66 2130ft 0kts
27-Feb-20 19:01 36.091033 -115.165626 66 2130ft 0kts
27-Feb-20 19:02 36.091033 -115.165626 66 2130ft 0kts
27-Feb-20 19:03 36.091033 -115.165626 66 2130ft 0kts
27-Feb-20 19:04 36.091033 -115.165626 66 2130ft 0kts
27-Feb-20 19:05 36.091033 -115.165626 66 2130ft 0kts
27-Feb-20 19:06 36.091033 -115.165626 66 2130ft 0kts
27-Feb-20 19:07 36.091033 -115.165626 66 2130ft 0kts

Navigation Log

Ident Type
Flight plan parsing failed, navigation log unavailable